sensor_id;sensor_type;location;lat;lon;timestamp;P1;durP1;ratioP1;P2;durP2;ratioP2
20381;SDS011;10350;51.280;12.400;2023-04-16T00:02:00;35.60;;;33.65;;
20381;SDS011;10350;51.280;12.400;2023-04-16T00:04:26;32.92;;;31.05;;
20381;SDS011;10350;51.280;12.400;2023-04-16T00:06:53;36.20;;;34.08;;
20381;SDS011;10350;51.280;12.400;2023-04-16T00:09:19;34.15;;;32.03;;
20381;SDS011;10350;51.280;12.400;2023-04-16T00:11:45;33.47;;;31.58;;
20381;SDS011;10350;51.280;12.400;2023-04-16T00:14:11;34.83;;;32.92;;
20381;SDS011;10350;51.280;12.400;2023-04-16T00:16:37;34.60;;;32.60;;
20381;SDS011;10350;51.280;12.400;2023-04-16T00:19:03;37.05;;;34.85;;
20381;SDS011;10350;51.280;12.400;2023-04-16T00:21:29;33.63;;;31.80;;
20381;SDS011;10350;51.280;12.400;2023-04-16T00:23:55;34.42;;;32.42;;
20381;SDS011;10350;51.280;12.400;2023-04-16T00:26:21;36.25;;;34.17;;
20381;SDS011;10350;51.280;12.400;2023-04-16T00:28:47;33.88;;;31.85;;
20381;SDS011;10350;51.280;12.400;2023-04-16T00:31:13;36.67;;;34.58;;
20381;SDS011;10350;51.280;12.400;2023-04-16T00:33:39;35.28;;;33.28;;
20381;SDS011;10350;51.280;12.400;2023-04-16T00:36:05;37.05;;;34.95;;
20381;SDS011;10350;51.280;12.400;2023-04-16T00:38:31;34.53;;;32.63;;
20381;SDS011;10350;51.280;12.400;2023-04-16T00:40:57;37.20;;;35.10;;
20381;SDS011;10350;51.280;12.400;2023-04-16T00:43:26;38.70;;;36.38;;
20381;SDS011;10350;51.280;12.400;2023-04-16T00:45:52;34.72;;;32.80;;
20381;SDS011;10350;51.280;12.400;2023-04-16T00:48:21;36.25;;;34.13;;
20381;SDS011;10350;51.280;12.400;2023-04-16T00:50:47;35.95;;;33.90;;
20381;SDS011;10350;51.280;12.400;2023-04-16T00:53:13;35.50;;;33.40;;
20381;SDS011;10350;51.280;12.400;2023-04-16T00:55:40;36.15;;;34.05;;
20381;SDS011;10350;51.280;12.400;2023-04-16T00:58:06;33.20;;;31.20;;
20381;SDS011;10350;51.280;12.400;2023-04-16T01:00:32;32.67;;;30.88;;
20381;SDS011;10350;51.280;12.400;2023-04-16T01:02:58;36.08;;;33.90;;
20381;SDS011;10350;51.280;12.400;2023-04-16T01:05:24;34.75;;;32.85;;
20381;SDS011;10350;51.280;12.400;2023-04-16T01:07:50;35.00;;;33.10;;
20381;SDS011;10350;51.280;12.400;2023-04-16T01:10:16;34.83;;;32.83;;
20381;SDS011;10350;51.280;12.400;2023-04-16T01:12:42;35.15;;;33.05;;
20381;SDS011;10350;51.280;12.400;2023-04-16T01:15:08;36.13;;;34.03;;
20381;SDS011;10350;51.280;12.400;2023-04-16T01:17:35;33.42;;;31.63;;
20381;SDS011;10350;51.280;12.400;2023-04-16T01:20:01;35.83;;;33.92;;
20381;SDS011;10350;51.280;12.400;2023-04-16T01:22:27;34.63;;;32.65;;
20381;SDS011;10350;51.280;12.400;2023-04-16T01:24:53;34.63;;;32.63;;
20381;SDS011;10350;51.280;12.400;2023-04-16T01:27:19;35.70;;;33.70;;
20381;SDS011;10350;51.280;12.400;2023-04-16T01:29:45;37.13;;;35.03;;
20381;SDS011;10350;51.280;12.400;2023-04-16T01:32:11;37.90;;;35.78;;
20381;SDS011;10350;51.280;12.400;2023-04-16T01:34:37;36.05;;;34.05;;
20381;SDS011;10350;51.280;12.400;2023-04-16T01:37:03;38.50;;;36.42;;
20381;SDS011;10350;51.280;12.400;2023-04-16T01:39:29;35.95;;;33.85;;
20381;SDS011;10350;51.280;12.400;2023-04-16T01:41:55;36.13;;;34.03;;
20381;SDS011;10350;51.280;12.400;2023-04-16T01:44:21;36.25;;;34.22;;
20381;SDS011;10350;51.280;12.400;2023-04-16T01:46:47;37.75;;;35.58;;
20381;SDS011;10350;51.280;12.400;2023-04-16T01:49:13;36.42;;;34.22;;
20381;SDS011;10350;51.280;12.400;2023-04-16T01:51:40;35.47;;;33.38;;
20381;SDS011;10350;51.280;12.400;2023-04-16T01:54:06;36.45;;;34.38;;
20381;SDS011;10350;51.280;12.400;2023-04-16T01:56:32;37.75;;;35.63;;
20381;SDS011;10350;51.280;12.400;2023-04-16T01:58:58;36.13;;;34.22;;
20381;SDS011;10350;51.280;12.400;2023-04-16T02:01:24;37.15;;;35.10;;
20381;SDS011;10350;51.280;12.400;2023-04-16T02:03:50;34.35;;;32.55;;
20381;SDS011;10350;51.280;12.400;2023-04-16T02:06:16;36.42;;;34.30;;
20381;SDS011;10350;51.280;12.400;2023-04-16T02:08:42;36.35;;;34.38;;
20381;SDS011;10350;51.280;12.400;2023-04-16T02:11:09;36.97;;;35.03;;
20381;SDS011;10350;51.280;12.400;2023-04-16T02:13:35;38.95;;;36.75;;
20381;SDS011;10350;51.280;12.400;2023-04-16T02:16:01;40.95;;;38.58;;
20381;SDS011;10350;51.280;12.400;2023-04-16T02:18:27;39.40;;;37.30;;
20381;SDS011;10350;51.280;12.400;2023-04-16T02:20:53;39.20;;;36.90;;
20381;SDS011;10350;51.280;12.400;2023-04-16T02:23:19;40.65;;;38.47;;
20381;SDS011;10350;51.280;12.400;2023-04-16T02:25:45;38.58;;;36.47;;
20381;SDS011;10350;51.280;12.400;2023-04-16T02:28:12;39.10;;;36.90;;
20381;SDS011;10350;51.280;12.400;2023-04-16T02:30:39;37.75;;;35.65;;
20381;SDS011;10350;51.280;12.400;2023-04-16T02:33:05;40.10;;;37.78;;
20381;SDS011;10350;51.280;12.400;2023-04-16T02:35:32;39.85;;;37.42;;
20381;SDS011;10350;51.280;12.400;2023-04-16T02:37:58;42.13;;;39.63;;
20381;SDS011;10350;51.280;12.400;2023-04-16T02:40:24;42.40;;;39.90;;
20381;SDS011;10350;51.280;12.400;2023-04-16T02:42:50;40.88;;;38.40;;
20381;SDS011;10350;51.280;12.400;2023-04-16T02:45:17;41.20;;;38.78;;
20381;SDS011;10350;51.280;12.400;2023-04-16T02:47:43;42.10;;;39.50;;
20381;SDS011;10350;51.280;12.400;2023-04-16T02:50:09;41.90;;;39.60;;
20381;SDS011;10350;51.280;12.400;2023-04-16T02:52:35;43.70;;;41.35;;
20381;SDS011;10350;51.280;12.400;2023-04-16T02:55:01;43.60;;;41.00;;
20381;SDS011;10350;51.280;12.400;2023-04-16T02:57:27;43.00;;;40.38;;
20381;SDS011;10350;51.280;12.400;2023-04-16T02:59:53;42.10;;;39.70;;
20381;SDS011;10350;51.280;12.400;2023-04-16T03:02:19;42.85;;;40.30;;
20381;SDS011;10350;51.280;12.400;2023-04-16T03:04:45;43.88;;;41.28;;
20381;SDS011;10350;51.280;12.400;2023-04-16T03:07:11;41.30;;;38.95;;
20381;SDS011;10350;51.280;12.400;2023-04-16T03:09:37;43.17;;;39.55;;
20381;SDS011;10350;51.280;12.400;2023-04-16T03:12:04;43.28;;;40.67;;
20381;SDS011;10350;51.280;12.400;2023-04-16T03:14:30;40.75;;;38.25;;
20381;SDS011;10350;51.280;12.400;2023-04-16T03:16:56;37.33;;;35.20;;
20381;SDS011;10350;51.280;12.400;2023-04-16T03:19:22;37.42;;;35.33;;
20381;SDS011;10350;51.280;12.400;2023-04-16T03:21:48;36.28;;;34.28;;
20381;SDS011;10350;51.280;12.400;2023-04-16T03:24:14;37.40;;;35.30;;
20381;SDS011;10350;51.280;12.400;2023-04-16T03:26:41;32.28;;;30.58;;
20381;SDS011;10350;51.280;12.400;2023-04-16T03:29:07;33.05;;;31.25;;
20381;SDS011;10350;51.280;12.400;2023-04-16T03:31:33;35.50;;;33.55;;
20381;SDS011;10350;51.280;12.400;2023-04-16T03:33:58;38.58;;;36.53;;
20381;SDS011;10350;51.280;12.400;2023-04-16T03:36:24;35.53;;;33.63;;
20381;SDS011;10350;51.280;12.400;2023-04-16T03:38:53;35.80;;;33.80;;
20381;SDS011;10350;51.280;12.400;2023-04-16T03:41:19;37.08;;;35.17;;
20381;SDS011;10350;51.280;12.400;2023-04-16T03:43:45;36.40;;;34.40;;
20381;SDS011;10350;51.280;12.400;2023-04-16T03:46:11;36.08;;;34.08;;
20381;SDS011;10350;51.280;12.400;2023-04-16T03:48:37;37.60;;;35.63;;
20381;SDS011;10350;51.280;12.400;2023-04-16T03:51:03;43.00;;;40.58;;
20381;SDS011;10350;51.280;12.400;2023-04-16T03:53:29;32.90;;;30.98;;
20381;SDS011;10350;51.280;12.400;2023-04-16T03:55:55;34.72;;;32.85;;
20381;SDS011;10350;51.280;12.400;2023-04-16T03:58:21;35.97;;;34.03;;
20381;SDS011;10350;51.280;12.400;2023-04-16T04:00:47;42.20;;;39.92;;
20381;SDS011;10350;51.280;12.400;2023-04-16T04:03:13;45.05;;;42.65;;
20381;SDS011;10350;51.280;12.400;2023-04-16T04:05:42;43.63;;;41.25;;
20381;SDS011;10350;51.280;12.400;2023-04-16T04:08:09;40.22;;;38.08;;
20381;SDS011;10350;51.280;12.400;2023-04-16T04:10:35;38.60;;;36.50;;
20381;SDS011;10350;51.280;12.400;2023-04-16T04:13:02;39.75;;;37.67;;
20381;SDS011;10350;51.280;12.400;2023-04-16T04:15:28;41.28;;;39.17;;
20381;SDS011;10350;51.280;12.400;2023-04-16T04:17:54;39.13;;;37.03;;
20381;SDS011;10350;51.280;12.400;2023-04-16T04:20:20;40.35;;;38.15;;
20381;SDS011;10350;51.280;12.400;2023-04-16T04:22:46;42.95;;;40.42;;
20381;SDS011;10350;51.280;12.400;2023-04-16T04:25:12;37.55;;;35.55;;
20381;SDS011;10350;51.280;12.400;2023-04-16T04:27:38;41.60;;;39.25;;
20381;SDS011;10350;51.280;12.400;2023-04-16T04:30:05;39.63;;;37.53;;
20381;SDS011;10350;51.280;12.400;2023-04-16T04:32:31;41.83;;;39.53;;
20381;SDS011;10350;51.280;12.400;2023-04-16T04:34:58;42.13;;;39.88;;
20381;SDS011;10350;51.280;12.400;2023-04-16T04:37:24;39.50;;;37.17;;
20381;SDS011;10350;51.280;12.400;2023-04-16T04:39:50;37.15;;;35.15;;
20381;SDS011;10350;51.280;12.400;2023-04-16T04:42:16;39.63;;;37.38;;
20381;SDS011;10350;51.280;12.400;2023-04-16T04:44:43;36.58;;;34.53;;
20381;SDS011;10350;51.280;12.400;2023-04-16T04:47:09;34.42;;;32.58;;
20381;SDS011;10350;51.280;12.400;2023-04-16T04:49:35;33.67;;;31.73;;
20381;SDS011;10350;51.280;12.400;2023-04-16T04:52:01;34.28;;;32.42;;
20381;SDS011;10350;51.280;12.400;2023-04-16T04:54:27;32.42;;;30.65;;
20381;SDS011;10350;51.280;12.400;2023-04-16T04:56:53;36.67;;;34.67;;
20381;SDS011;10350;51.280;12.400;2023-04-16T04:59:20;39.58;;;37.30;;
20381;SDS011;10350;51.280;12.400;2023-04-16T05:01:46;33.97;;;32.10;;
20381;SDS011;10350;51.280;12.400;2023-04-16T05:04:12;36.00;;;33.97;;
20381;SDS011;10350;51.280;12.400;2023-04-16T05:06:38;36.00;;;33.85;;
20381;SDS011;10350;51.280;12.400;2023-04-16T05:09:04;34.80;;;32.83;;
20381;SDS011;10350;51.280;12.400;2023-04-16T05:11:32;32.92;;;31.10;;
20381;SDS011;10350;51.280;12.400;2023-04-16T05:13:58;34.80;;;33.00;;
20381;SDS011;10350;51.280;12.400;2023-04-16T05:16:24;39.03;;;36.83;;
20381;SDS011;10350;51.280;12.400;2023-04-16T05:18:49;36.80;;;34.75;;
20381;SDS011;10350;51.280;12.400;2023-04-16T05:21:15;39.00;;;36.75;;
20381;SDS011;10350;51.280;12.400;2023-04-16T05:23:41;36.63;;;34.63;;
20381;SDS011;10350;51.280;12.400;2023-04-16T05:26:07;37.80;;;35.67;;
20381;SDS011;10350;51.280;12.400;2023-04-16T05:28:33;35.67;;;33.67;;
20381;SDS011;10350;51.280;12.400;2023-04-16T05:30:59;37.33;;;35.13;;
20381;SDS011;10350;51.280;12.400;2023-04-16T05:33:25;34.50;;;32.65;;
20381;SDS011;10350;51.280;12.400;2023-04-16T05:35:51;36.17;;;34.17;;
20381;SDS011;10350;51.280;12.400;2023-04-16T05:38:18;42.55;;;40.15;;
20381;SDS011;10350;51.280;12.400;2023-04-16T05:40:44;37.78;;;35.78;;
20381;SDS011;10350;51.280;12.400;2023-04-16T05:43:10;39.53;;;37.33;;
20381;SDS011;10350;51.280;12.400;2023-04-16T05:45:36;43.20;;;40.83;;
20381;SDS011;10350;51.280;12.400;2023-04-16T05:48:05;39.80;;;37.60;;
20381;SDS011;10350;51.280;12.400;2023-04-16T05:50:32;38.60;;;36.30;;
20381;SDS011;10350;51.280;12.400;2023-04-16T05:52:58;38.53;;;36.38;;
20381;SDS011;10350;51.280;12.400;2023-04-16T05:55:24;40.25;;;37.97;;
20381;SDS011;10350;51.280;12.400;2023-04-16T05:57:50;37.38;;;35.28;;
20381;SDS011;10350;51.280;12.400;2023-04-16T06:00:16;40.13;;;37.83;;
20381;SDS011;10350;51.280;12.400;2023-04-16T06:02:42;40.67;;;38.47;;
20381;SDS011;10350;51.280;12.400;2023-04-16T06:05:08;37.88;;;35.67;;
20381;SDS011;10350;51.280;12.400;2023-04-16T06:07:34;39.70;;;37.35;;
20381;SDS011;10350;51.280;12.400;2023-04-16T06:10:00;39.63;;;37.38;;
20381;SDS011;10350;51.280;12.400;2023-04-16T06:12:26;46.47;;;43.88;;
20381;SDS011;10350;51.280;12.400;2023-04-16T06:14:52;42.85;;;40.35;;
20381;SDS011;10350;51.280;12.400;2023-04-16T06:17:18;42.38;;;40.03;;
20381;SDS011;10350;51.280;12.400;2023-04-16T06:19:44;41.35;;;39.05;;
20381;SDS011;10350;51.280;12.400;2023-04-16T06:22:10;39.17;;;37.08;;
20381;SDS011;10350;51.280;12.400;2023-04-16T06:24:36;38.92;;;36.70;;
20381;SDS011;10350;51.280;12.400;2023-04-16T06:27:02;40.28;;;38.03;;
20381;SDS011;10350;51.280;12.400;2023-04-16T06:29:28;40.78;;;38.47;;
20381;SDS011;10350;51.280;12.400;2023-04-16T06:31:54;39.17;;;37.08;;
20381;SDS011;10350;51.280;12.400;2023-04-16T06:34:20;40.13;;;37.92;;
20381;SDS011;10350;51.280;12.400;2023-04-16T06:36:46;39.88;;;37.72;;
20381;SDS011;10350;51.280;12.400;2023-04-16T06:39:12;38.53;;;36.38;;
20381;SDS011;10350;51.280;12.400;2023-04-16T06:41:38;40.55;;;38.38;;
20381;SDS011;10350;51.280;12.400;2023-04-16T06:44:04;38.70;;;36.50;;
20381;SDS011;10350;51.280;12.400;2023-04-16T06:46:30;41.60;;;39.33;;
20381;SDS011;10350;51.280;12.400;2023-04-16T06:48:56;39.90;;;37.67;;
20381;SDS011;10350;51.280;12.400;2023-04-16T06:51:22;36.53;;;34.60;;
20381;SDS011;10350;51.280;12.400;2023-04-16T06:53:48;41.85;;;39.58;;
20381;SDS011;10350;51.280;12.400;2023-04-16T06:56:14;40.90;;;38.80;;
20381;SDS011;10350;51.280;12.400;2023-04-16T06:58:40;42.72;;;40.38;;
20381;SDS011;10350;51.280;12.400;2023-04-16T07:01:06;40.83;;;38.63;;
20381;SDS011;10350;51.280;12.400;2023-04-16T07:03:32;41.30;;;39.20;;
20381;SDS011;10350;51.280;12.400;2023-04-16T07:05:58;41.75;;;39.58;;
20381;SDS011;10350;51.280;12.400;2023-04-16T07:08:24;46.03;;;43.53;;
20381;SDS011;10350;51.280;12.400;2023-04-16T07:10:50;47.13;;;44.67;;
20381;SDS011;10350;51.280;12.400;2023-04-16T07:13:17;46.97;;;44.50;;
20381;SDS011;10350;51.280;12.400;2023-04-16T07:15:43;46.70;;;44.30;;
20381;SDS011;10350;51.280;12.400;2023-04-16T07:18:09;44.33;;;42.00;;
20381;SDS011;10350;51.280;12.400;2023-04-16T07:20:35;45.38;;;42.90;;
20381;SDS011;10350;51.280;12.400;2023-04-16T07:23:01;46.00;;;43.53;;
20381;SDS011;10350;51.280;12.400;2023-04-16T07:25:27;43.25;;;40.78;;
20381;SDS011;10350;51.280;12.400;2023-04-16T07:27:53;42.88;;;40.63;;
20381;SDS011;10350;51.280;12.400;2023-04-16T07:30:19;43.50;;;41.20;;
20381;SDS011;10350;51.280;12.400;2023-04-16T07:32:45;44.15;;;41.72;;
20381;SDS011;10350;51.280;12.400;2023-04-16T07:35:11;45.42;;;43.03;;
20381;SDS011;10350;51.280;12.400;2023-04-16T07:37:37;48.30;;;45.80;;
20381;SDS011;10350;51.280;12.400;2023-04-16T07:40:03;44.85;;;42.45;;
20381;SDS011;10350;51.280;12.400;2023-04-16T07:42:29;41.80;;;39.55;;
20381;SDS011;10350;51.280;12.400;2023-04-16T07:44:55;39.00;;;36.88;;
20381;SDS011;10350;51.280;12.400;2023-04-16T07:47:21;39.40;;;37.13;;
20381;SDS011;10350;51.280;12.400;2023-04-16T07:49:47;41.25;;;38.97;;
20381;SDS011;10350;51.280;12.400;2023-04-16T07:52:14;43.08;;;40.78;;
20381;SDS011;10350;51.280;12.400;2023-04-16T07:54:40;38.33;;;36.30;;
20381;SDS011;10350;51.280;12.400;2023-04-16T07:57:06;46.47;;;43.97;;
20381;SDS011;10350;51.280;12.400;2023-04-16T07:59:32;43.85;;;41.55;;
20381;SDS011;10350;51.280;12.400;2023-04-16T08:01:58;44.40;;;42.10;;
20381;SDS011;10350;51.280;12.400;2023-04-16T08:04:24;43.58;;;41.13;;
20381;SDS011;10350;51.280;12.400;2023-04-16T08:06:51;44.17;;;41.88;;
20381;SDS011;10350;51.280;12.400;2023-04-16T08:09:18;42.58;;;40.35;;
20381;SDS011;10350;51.280;12.400;2023-04-16T08:11:44;47.00;;;44.50;;
20381;SDS011;10350;51.280;12.400;2023-04-16T08:14:10;44.50;;;42.03;;
20381;SDS011;10350;51.280;12.400;2023-04-16T08:16:36;46.70;;;44.10;;
20381;SDS011;10350;51.280;12.400;2023-04-16T08:19:04;43.60;;;41.30;;
20381;SDS011;10350;51.280;12.400;2023-04-16T08:21:30;44.03;;;41.65;;
20381;SDS011;10350;51.280;12.400;2023-04-16T08:23:56;42.33;;;39.90;;
20381;SDS011;10350;51.280;12.400;2023-04-16T08:26:22;48.20;;;45.70;;
20381;SDS011;10350;51.280;12.400;2023-04-16T08:28:48;48.55;;;46.05;;
20381;SDS011;10350;51.280;12.400;2023-04-16T08:31:14;50.42;;;47.78;;
20381;SDS011;10350;51.280;12.400;2023-04-16T08:33:40;50.45;;;47.65;;
20381;SDS011;10350;51.280;12.400;2023-04-16T08:36:07;48.50;;;45.92;;
20381;SDS011;10350;51.280;12.400;2023-04-16T08:38:33;55.20;;;52.15;;
20381;SDS011;10350;51.280;12.400;2023-04-16T08:41:00;54.05;;;51.25;;
20381;SDS011;10350;51.280;12.400;2023-04-16T08:43:27;53.80;;;51.03;;
20381;SDS011;10350;51.280;12.400;2023-04-16T08:45:57;55.13;;;52.22;;
20381;SDS011;10350;51.280;12.400;2023-04-16T08:48:23;53.72;;;50.97;;
20381;SDS011;10350;51.280;12.400;2023-04-16T08:50:51;54.55;;;51.72;;
20381;SDS011;10350;51.280;12.400;2023-04-16T08:53:18;56.70;;;53.80;;
20381;SDS011;10350;51.280;12.400;2023-04-16T08:55:48;53.88;;;50.85;;
20381;SDS011;10350;51.280;12.400;2023-04-16T09:00:40;55.83;;;52.83;;
20381;SDS011;10350;51.280;12.400;2023-04-16T09:03:07;51.92;;;49.20;;
20381;SDS011;10350;51.280;12.400;2023-04-16T09:05:33;52.42;;;49.67;;
20381;SDS011;10350;51.280;12.400;2023-04-16T09:07:59;56.38;;;53.42;;
20381;SDS011;10350;51.280;12.400;2023-04-16T09:10:25;55.65;;;52.72;;
20381;SDS011;10350;51.280;12.400;2023-04-16T09:12:54;52.70;;;49.90;;
20381;SDS011;10350;51.280;12.400;2023-04-16T09:15:21;52.33;;;49.63;;
20381;SDS011;10350;51.280;12.400;2023-04-16T09:17:47;53.65;;;50.70;;
20381;SDS011;10350;51.280;12.400;2023-04-16T09:20:13;52.28;;;49.58;;
20381;SDS011;10350;51.280;12.400;2023-04-16T09:22:39;52.25;;;49.20;;
20381;SDS011;10350;51.280;12.400;2023-04-16T09:25:06;53.42;;;50.67;;
20381;SDS011;10350;51.280;12.400;2023-04-16T09:27:32;54.00;;;51.20;;
20381;SDS011;10350;51.280;12.400;2023-04-16T09:29:58;58.85;;;55.85;;
20381;SDS011;10350;51.280;12.400;2023-04-16T09:32:25;52.20;;;49.50;;
20381;SDS011;10350;51.280;12.400;2023-04-16T09:34:57;54.40;;;51.58;;
20381;SDS011;10350;51.280;12.400;2023-04-16T09:37:25;53.88;;;50.95;;
20381;SDS011;10350;51.280;12.400;2023-04-16T09:39:52;58.10;;;55.03;;
20381;SDS011;10350;51.280;12.400;2023-04-16T09:42:23;60.15;;;57.05;;
20381;SDS011;10350;51.280;12.400;2023-04-16T09:44:49;53.17;;;50.42;;
20381;SDS011;10350;51.280;12.400;2023-04-16T09:47:16;54.13;;;50.00;;
20381;SDS011;10350;51.280;12.400;2023-04-16T09:49:42;55.67;;;52.78;;
20381;SDS011;10350;51.280;12.400;2023-04-16T09:52:15;51.22;;;48.53;;
20381;SDS011;10350;51.280;12.400;2023-04-16T09:54:59;50.50;;;47.90;;
20381;SDS011;10350;51.280;12.400;2023-04-16T09:57:25;47.25;;;44.75;;
20381;SDS011;10350;51.280;12.400;2023-04-16T10:00:00;49.65;;;47.05;;
20381;SDS011;10350;51.280;12.400;2023-04-16T10:02:29;44.95;;;42.65;;
20381;SDS011;10350;51.280;12.400;2023-04-16T10:04:57;46.88;;;44.47;;
20381;SDS011;10350;51.280;12.400;2023-04-16T10:07:29;49.97;;;47.38;;
20381;SDS011;10350;51.280;12.400;2023-04-16T10:09:57;44.53;;;42.13;;
20381;SDS011;10350;51.280;12.400;2023-04-16T10:12:23;51.63;;;48.92;;
20381;SDS011;10350;51.280;12.400;2023-04-16T10:14:49;48.83;;;46.30;;
20381;SDS011;10350;51.280;12.400;2023-04-16T10:17:15;48.38;;;45.90;;
20381;SDS011;10350;51.280;12.400;2023-04-16T10:19:42;48.97;;;46.30;;
20381;SDS011;10350;51.280;12.400;2023-04-16T10:22:11;49.60;;;47.03;;
20381;SDS011;10350;51.280;12.400;2023-04-16T10:24:37;46.30;;;43.95;;
20381;SDS011;10350;51.280;12.400;2023-04-16T10:27:05;46.28;;;43.88;;
20381;SDS011;10350;51.280;12.400;2023-04-16T10:29:30;46.47;;;43.97;;
20381;SDS011;10350;51.280;12.400;2023-04-16T10:31:57;45.33;;;42.97;;
20381;SDS011;10350;51.280;12.400;2023-04-16T10:34:24;47.72;;;45.20;;
20381;SDS011;10350;51.280;12.400;2023-04-16T10:36:51;48.72;;;46.20;;
20381;SDS011;10350;51.280;12.400;2023-04-16T10:39:21;45.45;;;43.08;;
20381;SDS011;10350;51.280;12.400;2023-04-16T10:41:48;45.58;;;43.25;;
20381;SDS011;10350;51.280;12.400;2023-04-16T10:44:15;48.45;;;45.92;;
20381;SDS011;10350;51.280;12.400;2023-04-16T10:46:42;51.30;;;48.57;;
20381;SDS011;10350;51.280;12.400;2023-04-16T10:49:18;50.35;;;47.72;;
20381;SDS011;10350;51.280;12.400;2023-04-16T10:51:55;44.03;;;41.67;;
20381;SDS011;10350;51.280;12.400;2023-04-16T10:56:51;46.25;;;43.83;;
20381;SDS011;10350;51.280;12.400;2023-04-16T10:59:17;45.85;;;43.15;;
20381;SDS011;10350;51.280;12.400;2023-04-16T11:01:45;45.22;;;42.78;;
20381;SDS011;10350;51.280;12.400;2023-04-16T11:06:46;47.72;;;44.88;;
20381;SDS011;10350;51.280;12.400;2023-04-16T11:12:11;45.55;;;43.05;;
20381;SDS011;10350;51.280;12.400;2023-04-16T11:14:37;45.95;;;43.45;;
20381;SDS011;10350;51.280;12.400;2023-04-16T11:17:04;47.42;;;44.92;;
20381;SDS011;10350;51.280;12.400;2023-04-16T11:19:36;47.42;;;44.65;;
20381;SDS011;10350;51.280;12.400;2023-04-16T11:22:02;46.50;;;43.97;;
20381;SDS011;10350;51.280;12.400;2023-04-16T11:24:29;41.13;;;38.92;;
20381;SDS011;10350;51.280;12.400;2023-04-16T11:26:55;44.05;;;41.70;;
20381;SDS011;10350;51.280;12.400;2023-04-16T11:29:21;49.67;;;47.00;;
20381;SDS011;10350;51.280;12.400;2023-04-16T11:31:53;45.13;;;42.55;;
20381;SDS011;10350;51.280;12.400;2023-04-16T11:34:19;48.45;;;45.75;;
20381;SDS011;10350;51.280;12.400;2023-04-16T11:36:46;50.35;;;47.55;;
20381;SDS011;10350;51.280;12.400;2023-04-16T11:39:13;52.63;;;49.75;;
20381;SDS011;10350;51.280;12.400;2023-04-16T11:41:49;46.47;;;43.97;;
20381;SDS011;10350;51.280;12.400;2023-04-16T11:44:17;50.28;;;47.58;;
20381;SDS011;10350;51.280;12.400;2023-04-16T11:46:43;47.35;;;44.72;;
20381;SDS011;10350;51.280;12.400;2023-04-16T11:49:09;41.65;;;39.45;;
20381;SDS011;10350;51.280;12.400;2023-04-16T11:51:42;43.38;;;41.03;;
20381;SDS011;10350;51.280;12.400;2023-04-16T11:54:08;45.42;;;43.00;;
20381;SDS011;10350;51.280;12.400;2023-04-16T11:56:35;43.40;;;41.03;;
20381;SDS011;10350;51.280;12.400;2023-04-16T11:59:11;40.65;;;38.45;;
20381;SDS011;10350;51.280;12.400;2023-04-16T12:01:38;44.88;;;42.42;;
20381;SDS011;10350;51.280;12.400;2023-04-16T12:04:04;40.47;;;38.38;;
20381;SDS011;10350;51.280;12.400;2023-04-16T12:06:30;39.15;;;37.10;;
20381;SDS011;10350;51.280;12.400;2023-04-16T12:08:57;38.72;;;36.72;;
20381;SDS011;10350;51.280;12.400;2023-04-16T12:11:40;35.60;;;33.70;;
20381;SDS011;10350;51.280;12.400;2023-04-16T12:14:07;34.83;;;32.92;;
20381;SDS011;10350;51.280;12.400;2023-04-16T12:16:33;34.97;;;33.10;;
20381;SDS011;10350;51.280;12.400;2023-04-16T12:19:00;37.28;;;35.25;;
20381;SDS011;10350;51.280;12.400;2023-04-16T12:21:43;34.25;;;32.45;;
20381;SDS011;10350;51.280;12.400;2023-04-16T12:24:11;33.22;;;31.42;;
20381;SDS011;10350;51.280;12.400;2023-04-16T12:26:44;35.15;;;33.35;;
20381;SDS011;10350;51.280;12.400;2023-04-16T12:29:20;34.83;;;33.03;;
20381;SDS011;10350;51.280;12.400;2023-04-16T12:31:47;34.40;;;32.60;;
20381;SDS011;10350;51.280;12.400;2023-04-16T12:34:14;35.08;;;33.20;;
20381;SDS011;10350;51.280;12.400;2023-04-16T12:36:41;37.95;;;35.95;;
20381;SDS011;10350;51.280;12.400;2023-04-16T12:39:07;38.45;;;36.40;;
20381;SDS011;10350;51.280;12.400;2023-04-16T12:41:38;37.90;;;35.80;;
20381;SDS011;10350;51.280;12.400;2023-04-16T12:44:06;36.35;;;34.35;;
20381;SDS011;10350;51.280;12.400;2023-04-16T12:46:33;36.88;;;34.88;;
20381;SDS011;10350;51.280;12.400;2023-04-16T12:48:59;36.65;;;34.60;;
20381;SDS011;10350;51.280;12.400;2023-04-16T12:51:32;35.30;;;33.42;;
20381;SDS011;10350;51.280;12.400;2023-04-16T12:53:59;38.38;;;36.28;;
20381;SDS011;10350;51.280;12.400;2023-04-16T12:56:26;37.08;;;35.10;;
20381;SDS011;10350;51.280;12.400;2023-04-16T12:58:54;36.22;;;34.33;;
20381;SDS011;10350;51.280;12.400;2023-04-16T13:01:31;35.97;;;33.95;;
20381;SDS011;10350;51.280;12.400;2023-04-16T13:04:12;33.97;;;32.08;;
20381;SDS011;10350;51.280;12.400;2023-04-16T13:06:39;33.55;;;31.85;;
20381;SDS011;10350;51.280;12.400;2023-04-16T13:09:08;33.22;;;31.50;;
20381;SDS011;10350;51.280;12.400;2023-04-16T13:11:35;32.65;;;30.95;;
20381;SDS011;10350;51.280;12.400;2023-04-16T13:14:01;36.28;;;34.25;;
20381;SDS011;10350;51.280;12.400;2023-04-16T13:16:27;33.60;;;31.80;;
20381;SDS011;10350;51.280;12.400;2023-04-16T13:18:53;33.03;;;31.33;;
20381;SDS011;10350;51.280;12.400;2023-04-16T13:21:19;35.00;;;33.05;;
20381;SDS011;10350;51.280;12.400;2023-04-16T13:23:46;35.67;;;33.77;;
20381;SDS011;10350;51.280;12.400;2023-04-16T13:26:13;31.63;;;29.92;;
20381;SDS011;10350;51.280;12.400;2023-04-16T13:28:39;31.52;;;29.92;;
20381;SDS011;10350;51.280;12.400;2023-04-16T13:31:05;33.05;;;31.25;;
20381;SDS011;10350;51.280;12.400;2023-04-16T13:33:31;31.48;;;29.85;;
20381;SDS011;10350;51.280;12.400;2023-04-16T13:35:57;29.55;;;28.05;;
20381;SDS011;10350;51.280;12.400;2023-04-16T13:38:23;29.73;;;28.13;;
20381;SDS011;10350;51.280;12.400;2023-04-16T13:40:50;28.70;;;27.17;;
20381;SDS011;10350;51.280;12.400;2023-04-16T13:43:17;29.80;;;28.23;;
20381;SDS011;10350;51.280;12.400;2023-04-16T13:45:43;28.35;;;26.75;;
20381;SDS011;10350;51.280;12.400;2023-04-16T13:48:09;28.52;;;27.02;;
20381;SDS011;10350;51.280;12.400;2023-04-16T13:50:35;30.90;;;29.10;;
20381;SDS011;10350;51.280;12.400;2023-04-16T13:53:03;31.85;;;30.13;;
20381;SDS011;10350;51.280;12.400;2023-04-16T13:55:30;33.25;;;31.45;;
20381;SDS011;10350;51.280;12.400;2023-04-16T13:58:06;33.90;;;32.13;;
20381;SDS011;10350;51.280;12.400;2023-04-16T14:00:35;33.45;;;31.52;;
20381;SDS011;10350;51.280;12.400;2023-04-16T14:03:10;35.50;;;33.60;;
20381;SDS011;10350;51.280;12.400;2023-04-16T14:05:49;32.45;;;30.65;;
20381;SDS011;10350;51.280;12.400;2023-04-16T14:08:23;33.20;;;31.40;;
20381;SDS011;10350;51.280;12.400;2023-04-16T14:10:49;34.38;;;32.45;;
20381;SDS011;10350;51.280;12.400;2023-04-16T14:13:16;34.28;;;32.17;;
20381;SDS011;10350;51.280;12.400;2023-04-16T14:16:12;37.78;;;35.67;;
20381;SDS011;10350;51.280;12.400;2023-04-16T14:18:38;35.47;;;33.58;;